sensor_id;sensor_type;location;lat;lon;timestamp;pressure;altitude;pressure_sealevel;temperature;humidity
52343;BME280;38277;51.972;4.624;2023-02-18T00:04:28;102400.0;;;11.0;90.0
52343;BME280;38277;51.972;4.624;2023-02-18T00:09:10;102390.0;;;11.0;90.5
52343;BME280;38277;51.972;4.624;2023-02-18T00:13:56;102390.0;;;10.9;91.0
52343;BME280;38277;51.972;4.624;2023-02-18T00:17:47;102390.0;;;10.8;92.0
52343;BME280;38277;51.972;4.624;2023-02-18T00:22:33;102390.0;;;10.7;92.0
52343;BME280;38277;51.972;4.624;2023-02-18T00:26:44;102380.0;;;10.7;93.0
52343;BME280;38277;51.972;4.624;2023-02-18T00:31:50;102390.0;;;10.6;93.5
52343;BME280;38277;51.972;4.624;2023-02-18T00:36:11;102380.0;;;10.6;93.5
52343;BME280;38277;51.972;4.624;2023-02-18T00:40:35;102370.0;;;10.6;94.0
52343;BME280;38277;51.972;4.624;2023-02-18T00:45:03;102370.0;;;10.6;94.5
52343;BME280;38277;51.972;4.624;2023-02-18T00:50:19;102360.0;;;10.6;94.5
52343;BME280;38277;51.972;4.624;2023-02-18T00:54:15;102360.0;;;10.6;95.0
52343;BME280;38277;51.972;4.624;2023-02-18T00:58:17;102350.0;;;10.7;95.0
52343;BME280;38277;51.972;4.624;2023-02-18T01:03:08;102350.0;;;10.7;95.0
52343;BME280;38277;51.972;4.624;2023-02-18T01:07:27;102350.0;;;10.7;95.5
52343;BME280;38277;51.972;4.624;2023-02-18T01:12:29;102340.0;;;10.7;95.5
52343;BME280;38277;51.972;4.624;2023-02-18T01:16:19;102340.0;;;10.8;95.5
52343;BME280;38277;51.972;4.624;2023-02-18T01:21:16;102350.0;;;10.8;95.5
52343;BME280;38277;51.972;4.624;2023-02-18T01:25:23;102340.0;;;10.9;95.5
52343;BME280;38277;51.972;4.624;2023-02-18T01:30:26;102340.0;;;10.9;95.5
52343;BME280;38277;51.972;4.624;2023-02-18T01:34:35;102320.0;;;10.9;95.5
52343;BME280;38277;51.972;4.624;2023-02-18T01:43:35;102320.0;;;10.9;96.0
52343;BME280;38277;51.972;4.624;2023-02-18T01:48:02;102310.0;;;11.0;96.0
52343;BME280;38277;51.972;4.624;2023-02-18T01:52:17;102310.0;;;11.0;96.0
52343;BME280;38277;51.972;4.624;2023-02-18T02:01:14;102300.0;;;11.0;96.0
52343;BME280;38277;51.972;4.624;2023-02-18T02:05:50;102300.0;;;11.1;96.5
52343;BME280;38277;51.972;4.624;2023-02-18T02:10:47;102280.0;;;11.1;96.5
52343;BME280;38277;51.972;4.624;2023-02-18T02:22:17;102270.0;;;11.2;97.0
52343;BME280;38277;51.972;4.624;2023-02-18T02:28:10;102260.0;;;11.2;96.5
52343;BME280;38277;51.972;4.624;2023-02-18T02:34:58;102250.0;;;11.2;96.0
52343;BME280;38277;51.972;4.624;2023-02-18T02:43:38;102230.0;;;11.1;96.0
52343;BME280;38277;51.972;4.624;2023-02-18T02:47:27;102220.0;;;11.1;96.0
52343;BME280;38277;51.972;4.624;2023-02-18T02:51:42;102200.0;;;11.0;96.0
52343;BME280;38277;51.972;4.624;2023-02-18T02:53:45;102190.0;;;11.0;96.5
52343;BME280;38277;51.972;4.624;2023-02-18T02:55:29;102190.0;;;10.9;96.5
52343;BME280;38277;51.972;4.624;2023-02-18T03:00:07;102180.0;;;10.8;97.0
52343;BME280;38277;51.972;4.624;2023-02-18T03:05:43;102170.0;;;10.8;97.5
52343;BME280;38277;51.972;4.624;2023-02-18T03:11:16;102180.0;;;10.8;97.5
52343;BME280;38277;51.972;4.624;2023-02-18T03:13:56;102170.0;;;10.8;98.0
52343;BME280;38277;51.972;4.624;2023-02-18T03:22:38;102170.0;;;10.8;99.0
52343;BME280;38277;51.972;4.624;2023-02-18T03:27:03;102160.0;;;10.8;99.5
52343;BME280;38277;51.972;4.624;2023-02-18T03:31:46;102150.0;;;10.8;100.0
52343;BME280;38277;51.972;4.624;2023-02-18T03:35:57;102130.0;;;10.8;100.0
52343;BME280;38277;51.972;4.624;2023-02-18T03:40:16;102120.0;;;10.8;100.0
52343;BME280;38277;51.972;4.624;2023-02-18T03:44:58;102120.0;;;10.8;100.0
52343;BME280;38277;51.972;4.624;2023-02-18T03:49:28;102120.0;;;10.8;100.0
52343;BME280;38277;51.972;4.624;2023-02-18T03:53:43;102120.0;;;10.8;100.0
52343;BME280;38277;51.972;4.624;2023-02-18T04:02:50;102110.0;;;10.8;100.0
52343;BME280;38277;51.972;4.624;2023-02-18T04:07:34;102090.0;;;10.8;100.0
52343;BME280;38277;51.972;4.624;2023-02-18T04:12:14;102100.0;;;10.8;100.0
52343;BME280;38277;51.972;4.624;2023-02-18T04:16:32;102090.0;;;10.8;100.0
52343;BME280;38277;51.972;4.624;2023-02-18T04:20:48;102090.0;;;10.8;100.0
52343;BME280;38277;51.972;4.624;2023-02-18T04:25:47;102090.0;;;10.8;100.0
52343;BME280;38277;51.972;4.624;2023-02-18T04:30:09;102070.0;;;10.9;100.0
52343;BME280;38277;51.972;4.624;2023-02-18T04:34:26;102090.0;;;10.9;100.0
52343;BME280;38277;51.972;4.624;2023-02-18T04:39:06;102080.0;;;10.9;100.0
52343;BME280;38277;51.972;4.624;2023-02-18T04:43:37;102080.0;;;10.9;100.0
52343;BME280;38277;51.972;4.624;2023-02-18T04:48:28;102060.0;;;11.0;100.0
52343;BME280;38277;51.972;4.624;2023-02-18T04:52:29;102040.0;;;11.0;100.0
52343;BME280;38277;51.972;4.624;2023-02-18T04:56:59;102050.0;;;11.0;100.0
52343;BME280;38277;51.972;4.624;2023-02-18T05:01:24;102040.0;;;11.1;100.0
52343;BME280;38277;51.972;4.624;2023-02-18T05:05:57;102030.0;;;11.1;100.0
52343;BME280;38277;51.972;4.624;2023-02-18T05:10:59;102050.0;;;11.1;100.0
52343;BME280;38277;51.972;4.624;2023-02-18T05:15:03;102050.0;;;11.1;99.5
52343;BME280;38277;51.972;4.624;2023-02-18T05:20:02;102040.0;;;11.1;99.5
52343;BME280;38277;51.972;4.624;2023-02-18T05:24:11;102040.0;;;11.1;99.5
52343;BME280;38277;51.972;4.624;2023-02-18T05:28:54;102030.0;;;11.1;99.5
52343;BME280;38277;51.972;4.624;2023-02-18T05:33:05;102010.0;;;11.1;99.5
52343;BME280;38277;51.972;4.624;2023-02-18T05:37:37;102010.0;;;11.2;99.5
52343;BME280;38277;51.972;4.624;2023-02-18T05:41:54;102020.0;;;11.2;99.0
52343;BME280;38277;51.972;4.624;2023-02-18T05:46:50;102010.0;;;11.2;99.0
52343;BME280;38277;51.972;4.624;2023-02-18T05:50:49;102010.0;;;11.2;99.0
52343;BME280;38277;51.972;4.624;2023-02-18T05:59:46;102000.0;;;11.1;99.0
52343;BME280;38277;51.972;4.624;2023-02-18T06:04:35;102000.0;;;11.1;98.5
52343;BME280;38277;51.972;4.624;2023-02-18T06:09:04;102000.0;;;11.2;98.0
52343;BME280;38277;51.972;4.624;2023-02-18T06:17:46;102010.0;;;11.2;97.5
52343;BME280;38277;51.972;4.624;2023-02-18T06:22:40;102000.0;;;11.3;97.0
52343;BME280;38277;51.972;4.624;2023-02-18T06:36:04;102010.0;;;11.3;95.5
52343;BME280;38277;51.972;4.624;2023-02-18T06:40:15;102000.0;;;11.3;94.5
52343;BME280;38277;51.972;4.624;2023-02-18T06:44:51;101990.0;;;11.3;94.5
52343;BME280;38277;51.972;4.624;2023-02-18T06:54:00;101990.0;;;11.3;93.5
52343;BME280;38277;51.972;4.624;2023-02-18T06:58:40;102000.0;;;11.3;93.0
52343;BME280;38277;51.972;4.624;2023-02-18T07:07:20;101990.0;;;11.3;91.0
52343;BME280;38277;51.972;4.624;2023-02-18T07:12:35;101980.0;;;11.3;90.0
52343;BME280;38277;51.972;4.624;2023-02-18T07:16:25;101980.0;;;11.3;89.5
52343;BME280;38277;51.972;4.624;2023-02-18T07:21:23;101980.0;;;11.2;89.0
52343;BME280;38277;51.972;4.624;2023-02-18T07:25:34;101980.0;;;11.2;88.0
52343;BME280;38277;51.972;4.624;2023-02-18T07:30:30;101990.0;;;11.2;88.0
52343;BME280;38277;51.972;4.624;2023-02-18T07:34:20;101980.0;;;11.2;86.5
52343;BME280;38277;51.972;4.624;2023-02-18T07:38:57;101990.0;;;11.2;86.0
52343;BME280;38277;51.972;4.624;2023-02-18T07:43:25;101980.0;;;11.2;85.0
52343;BME280;38277;51.972;4.624;2023-02-18T07:48:30;101970.0;;;11.3;84.5
52343;BME280;38277;51.972;4.624;2023-02-18T07:52:39;101980.0;;;11.3;84.0
52343;BME280;38277;51.972;4.624;2023-02-18T08:01:14;101980.0;;;11.4;82.0
52343;BME280;38277;51.972;4.624;2023-02-18T08:10:33;101990.0;;;11.3;82.5
52343;BME280;38277;51.972;4.624;2023-02-18T08:19:20;102000.0;;;11.2;83.0
52343;BME280;38277;51.972;4.624;2023-02-18T08:23:43;102000.0;;;11.1;84.0
52343;BME280;38277;51.972;4.624;2023-02-18T08:28:17;102000.0;;;11.0;85.0
52343;BME280;38277;51.972;4.624;2023-02-18T08:33:10;102010.0;;;11.0;85.5
52343;BME280;38277;51.972;4.624;2023-02-18T08:37:24;102000.0;;;10.9;86.5
52343;BME280;38277;51.972;4.624;2023-02-18T08:41:47;102000.0;;;10.9;85.5
52343;BME280;38277;51.972;4.624;2023-02-18T08:46:16;102010.0;;;10.9;85.0
52343;BME280;38277;51.972;4.624;2023-02-18T08:55:19;102010.0;;;11.1;83.5
52343;BME280;38277;51.972;4.624;2023-02-18T08:59:44;102030.0;;;11.1;83.0
52343;BME280;38277;51.972;4.624;2023-02-18T09:04:33;102020.0;;;11.2;82.5
52343;BME280;38277;51.972;4.624;2023-02-18T09:09:05;102030.0;;;11.3;82.0
52343;BME280;38277;51.972;4.624;2023-02-18T09:14:00;102020.0;;;11.3;82.0
52343;BME280;38277;51.972;4.624;2023-02-18T09:18:00;102030.0;;;11.4;81.5
52343;BME280;38277;51.972;4.624;2023-02-18T09:22:29;102040.0;;;11.3;82.0
52343;BME280;38277;51.972;4.624;2023-02-18T09:26:55;102040.0;;;11.4;81.5
52343;BME280;38277;51.972;4.624;2023-02-18T09:31:18;102030.0;;;11.4;81.5
52343;BME280;38277;51.972;4.624;2023-02-18T09:40:36;102050.0;;;11.6;81.0
52343;BME280;38277;51.972;4.624;2023-02-18T09:45:00;102060.0;;;11.7;80.5
52343;BME280;38277;51.972;4.624;2023-02-18T09:49:35;102070.0;;;11.7;80.5
52343;BME280;38277;51.972;4.624;2023-02-18T09:54:00;102080.0;;;11.7;80.5
52343;BME280;38277;51.972;4.624;2023-02-18T09:58:18;102060.0;;;11.8;80.5
52343;BME280;38277;51.972;4.624;2023-02-18T10:03:04;102080.0;;;11.8;80.0
52343;BME280;38277;51.972;4.624;2023-02-18T10:07:19;102070.0;;;11.8;80.5
52343;BME280;38277;51.972;4.624;2023-02-18T10:12:15;102080.0;;;11.9;80.0
52343;BME280;38277;51.972;4.624;2023-02-18T10:16:29;102070.0;;;12.0;79.5
52343;BME280;38277;51.972;4.624;2023-02-18T10:21:10;102070.0;;;12.1;80.0
52343;BME280;38277;51.972;4.624;2023-02-18T10:25:18;102100.0;;;12.2;79.5
52343;BME280;38277;51.972;4.624;2023-02-18T10:29:58;102090.0;;;12.3;79.0
52343;BME280;38277;51.972;4.624;2023-02-18T10:34:47;102100.0;;;12.3;79.0
52343;BME280;38277;51.972;4.624;2023-02-18T10:39:34;102100.0;;;12.3;79.0
52343;BME280;38277;51.972;4.624;2023-02-18T10:45:03;102100.0;;;12.4;78.5
52343;BME280;38277;51.972;4.624;2023-02-18T10:49:57;102110.0;;;12.4;79.0
52343;BME280;38277;51.972;4.624;2023-02-18T10:52:46;102110.0;;;12.5;79.0
52343;BME280;38277;51.972;4.624;2023-02-18T11:01:15;102090.0;;;12.7;77.5
52343;BME280;38277;51.972;4.624;2023-02-18T11:06:16;102100.0;;;12.8;77.0
52343;BME280;38277;51.972;4.624;2023-02-18T11:10:30;102100.0;;;12.9;77.0
52343;BME280;38277;51.972;4.624;2023-02-18T11:15:14;102100.0;;;12.9;76.0
52343;BME280;38277;51.972;4.624;2023-02-18T11:19:34;102100.0;;;13.0;76.5
52343;BME280;38277;51.972;4.624;2023-02-18T11:24:15;102100.0;;;12.9;77.0
52343;BME280;38277;51.972;4.624;2023-02-18T11:28:42;102100.0;;;13.0;76.5
52343;BME280;38277;51.972;4.624;2023-02-18T11:37:32;102080.0;;;13.1;76.0
52343;BME280;38277;51.972;4.624;2023-02-18T11:42:01;102090.0;;;13.1;76.0
52343;BME280;38277;51.972;4.624;2023-02-18T11:46:36;102100.0;;;13.1;76.0
52343;BME280;38277;51.972;4.624;2023-02-18T11:55:23;102090.0;;;13.2;75.5
52343;BME280;38277;51.972;4.624;2023-02-18T11:59:52;102110.0;;;13.3;75.5
52343;BME280;38277;51.972;4.624;2023-02-18T12:04:35;102080.0;;;13.3;75.0
52343;BME280;38277;51.972;4.624;2023-02-18T12:09:02;102090.0;;;13.3;75.5
52343;BME280;38277;51.972;4.624;2023-02-18T12:13:52;102090.0;;;13.3;75.5
52343;BME280;38277;51.972;4.624;2023-02-18T12:19:10;102080.0;;;13.4;74.5
52343;BME280;38277;51.972;4.624;2023-02-18T12:24:08;102070.0;;;13.4;75.5
52343;BME280;38277;51.972;4.624;2023-02-18T12:34:00;102080.0;;;14.1;73.0
52343;BME280;38277;51.972;4.624;2023-02-18T12:39:45;102080.0;;;14.3;71.5
52343;BME280;38277;51.972;4.624;2023-02-18T12:45:52;102090.0;;;14.3;71.0
52343;BME280;38277;51.972;4.624;2023-02-18T12:51:21;102080.0;;;14.3;71.0
52343;BME280;38277;51.972;4.624;2023-02-18T12:56:30;102080.0;;;14.2;71.0
52343;BME280;38277;51.972;4.624;2023-02-18T13:01:45;102080.0;;;14.1;72.0
52343;BME280;38277;51.972;4.624;2023-02-18T13:07:51;102090.0;;;14.1;72.5
52343;BME280;38277;51.972;4.624;2023-02-18T13:12:33;102090.0;;;14.6;70.5
52343;BME280;38277;51.972;4.624;2023-02-18T13:15:39;102070.0;;;14.7;69.5
52343;BME280;38277;51.972;4.624;2023-02-18T13:17:24;102080.0;;;14.7;70.5
52343;BME280;38277;51.972;4.624;2023-02-18T13:20:04;102100.0;;;15.1;69.0
52343;BME280;38277;51.972;4.624;2023-02-18T13:25:16;102080.0;;;15.6;66.0
52343;BME280;38277;51.972;4.624;2023-02-18T13:30:33;102080.0;;;15.5;66.0
52343;BME280;38277;51.972;4.624;2023-02-18T13:35:19;102080.0;;;15.5;66.0
52343;BME280;38277;51.972;4.624;2023-02-18T13:39:20;102080.0;;;15.8;65.0
52343;BME280;38277;51.972;4.624;2023-02-18T13:43:40;102080.0;;;15.9;64.0
52343;BME280;38277;51.972;4.624;2023-02-18T13:48:26;102080.0;;;16.1;64.5
52343;BME280;38277;51.972;4.624;2023-02-18T13:52:42;102080.0;;;16.9;61.5
52343;BME280;38277;51.972;4.624;2023-02-18T13:57:19;102070.0;;;17.6;59.0
52343;BME280;38277;51.972;4.624;2023-02-18T14:01:38;102080.0;;;18.3;57.0
52343;BME280;38277;51.972;4.624;2023-02-18T14:06:23;102080.0;;;18.6;54.5
52343;BME280;38277;51.972;4.624;2023-02-18T14:10:31;102080.0;;;17.8;56.0
52343;BME280;38277;51.972;4.624;2023-02-18T14:19:27;102090.0;;;16.4;61.0
52343;BME280;38277;51.972;4.624;2023-02-18T14:24:01;102080.0;;;15.8;63.0
52343;BME280;38277;51.972;4.624;2023-02-18T14:28:59;102080.0;;;15.4;64.5
52343;BME280;38277;51.972;4.624;2023-02-18T14:38:28;102090.0;;;14.9;66.5
52343;BME280;38277;51.972;4.624;2023-02-18T14:42:59;102100.0;;;14.7;68.0
52343;BME280;38277;51.972;4.624;2023-02-18T14:48:17;102090.0;;;14.4;69.0
52343;BME280;38277;51.972;4.624;2023-02-18T14:55:37;102090.0;;;14.3;69.5
52343;BME280;38277;51.972;4.624;2023-02-18T14:59:57;102100.0;;;14.1;70.5
52343;BME280;38277;51.972;4.624;2023-02-18T15:04:40;102090.0;;;13.9;71.5
52343;BME280;38277;51.972;4.624;2023-02-18T15:08:43;102110.0;;;13.8;72.0
52343;BME280;38277;51.972;4.624;2023-02-18T15:13:17;102100.0;;;13.9;72.0
52343;BME280;38277;51.972;4.624;2023-02-18T15:18:01;102100.0;;;14.0;72.0
52343;BME280;38277;51.972;4.624;2023-02-18T15:22:34;102090.0;;;13.7;73.0
52343;BME280;38277;51.972;4.624;2023-02-18T15:27:11;102100.0;;;13.6;73.5
52343;BME280;38277;51.972;4.624;2023-02-18T15:31:15;102090.0;;;13.6;73.5
52343;BME280;38277;51.972;4.624;2023-02-18T15:36:14;102090.0;;;13.5;73.5
52343;BME280;38277;51.972;4.624;2023-02-18T15:40:40;102080.0;;;13.4;74.5
52343;BME280;38277;51.972;4.624;2023-02-18T15:45:00;102080.0;;;13.3;75.0
52343;BME280;38277;51.972;4.624;2023-02-18T15:50:02;102090.0;;;13.2;75.5
52343;BME280;38277;51.972;4.624;2023-02-18T15:54:01;102100.0;;;13.1;76.0
52343;BME280;38277;51.972;4.624;2023-02-18T15:58:32;102100.0;;;13.1;76.0
52343;BME280;38277;51.972;4.624;2023-02-18T16:03:27;102100.0;;;13.0;76.5
52343;BME280;38277;51.972;4.624;2023-02-18T16:07:29;102100.0;;;12.9;77.0
52343;BME280;38277;51.972;4.624;2023-02-18T16:12:30;102100.0;;;12.8;77.5
52343;BME280;38277;51.972;4.624;2023-02-18T16:16:22;102100.0;;;12.8;77.5
52343;BME280;38277;51.972;4.624;2023-02-18T16:21:38;102090.0;;;12.8;78.0
52343;BME280;38277;51.972;4.624;2023-02-18T16:25:15;102100.0;;;12.8;78.5
52343;BME280;38277;51.972;4.624;2023-02-18T16:30:33;102100.0;;;12.8;78.5
52343;BME280;38277;51.972;4.624;2023-02-18T16:34:14;102090.0;;;12.6;79.0
52343;BME280;38277;51.972;4.624;2023-02-18T16:39:17;102090.0;;;12.5;79.5
52343;BME280;38277;51.972;4.624;2023-02-18T16:43:40;102100.0;;;12.6;80.0
52343;BME280;38277;51.972;4.624;2023-02-18T16:47:47;102090.0;;;12.5;80.0
52343;BME280;38277;51.972;4.624;2023-02-18T16:57:03;102080.0;;;12.3;81.5
52343;BME280;38277;51.972;4.624;2023-02-18T17:05:43;102090.0;;;12.1;83.5
52343;BME280;38277;51.972;4.624;2023-02-18T17:10:28;102080.0;;;12.0;84.5
52343;BME280;38277;51.972;4.624;2023-02-18T17:23:55;102080.0;;;12.1;85.0
52343;BME280;38277;51.972;4.624;2023-02-18T17:28:41;102080.0;;;12.1;85.0
52343;BME280;38277;51.972;4.624;2023-02-18T17:33:11;102070.0;;;12.1;85.0
52343;BME280;38277;51.972;4.624;2023-02-18T17:41:53;102080.0;;;12.1;85.0
52343;BME280;38277;51.972;4.624;2023-02-18T17:46:18;102090.0;;;12.1;85.0
52343;BME280;38277;51.972;4.624;2023-02-18T17:55:32;102090.0;;;12.1;84.5
52343;BME280;38277;51.972;4.624;2023-02-18T17:59:49;102080.0;;;12.1;84.5
52343;BME280;38277;51.972;4.624;2023-02-18T18:04:31;102080.0;;;12.1;85.0
52343;BME280;38277;51.972;4.624;2023-02-18T18:08:44;102070.0;;;12.1;84.5
52343;BME280;38277;51.972;4.624;2023-02-18T18:13:23;102090.0;;;12.1;84.5
52343;BME280;38277;51.972;4.624;2023-02-18T18:18:24;102090.0;;;12.1;84.5
52343;BME280;38277;51.972;4.624;2023-02-18T18:22:18;102090.0;;;12.0;85.0
52343;BME280;38277;51.972;4.624;2023-02-18T18:26:59;102100.0;;;12.0;85.0
52343;BME280;38277;51.972;4.624;2023-02-18T18:31:25;102090.0;;;12.0;85.5
52343;BME280;38277;51.972;4.624;2023-02-18T18:35:53;102090.0;;;12.0;85.5
52343;BME280;38277;51.972;4.624;2023-02-18T18:40:18;102080.0;;;11.9;86.0
52343;BME280;38277;51.972;4.624;2023-02-18T18:44:42;102080.0;;;11.9;86.5
52343;BME280;38277;51.972;4.624;2023-02-18T18:58:37;102080.0;;;11.9;86.5
52343;BME280;38277;51.972;4.624;2023-02-18T19:03:10;102070.0;;;11.9;87.0
52343;BME280;38277;51.972;4.624;2023-02-18T19:07:12;102060.0;;;11.9;87.0
52343;BME280;38277;51.972;4.624;2023-02-18T19:11:57;102080.0;;;11.9;87.0
52343;BME280;38277;51.972;4.624;2023-02-18T19:16:34;102060.0;;;12.0;87.0
52343;BME280;38277;51.972;4.624;2023-02-18T19:21:05;102080.0;;;12.0;87.0
52343;BME280;38277;51.972;4.624;2023-02-18T19:25:19;102080.0;;;12.0;87.0
52343;BME280;38277;51.972;4.624;2023-02-18T19:30:08;102090.0;;;11.9;88.0
52343;BME280;38277;51.972;4.624;2023-02-18T19:35:25;102080.0;;;11.7;89.0
52343;BME280;38277;51.972;4.624;2023-02-18T19:38:51;102070.0;;;11.6;90.0
52343;BME280;38277;51.972;4.624;2023-02-18T19:43:20;102050.0;;;11.6;91.0
52343;BME280;38277;51.972;4.624;2023-02-18T19:48:49;102040.0;;;11.5;91.5
52343;BME280;38277;51.972;4.624;2023-02-18T19:52:18;102040.0;;;11.4;92.5
52343;BME280;38277;51.972;4.624;2023-02-18T19:56:47;102050.0;;;11.4;93.0
52343;BME280;38277;51.972;4.624;2023-02-18T20:02:13;102040.0;;;11.4;93.5
52343;BME280;38277;51.972;4.624;2023-02-18T20:06:28;102030.0;;;11.3;94.0
52343;BME280;38277;51.972;4.624;2023-02-18T20:10:19;102020.0;;;11.3;94.0
52343;BME280;38277;51.972;4.624;2023-02-18T20:15:11;102020.0;;;11.3;94.5
52343;BME280;38277;51.972;4.624;2023-02-18T20:19:34;102010.0;;;11.3;94.5
52343;BME280;38277;51.972;4.624;2023-02-18T20:24:55;102010.0;;;11.3;95.0
52343;BME280;38277;51.972;4.624;2023-02-18T20:28:32;102020.0;;;11.3;95.5
52343;BME280;38277;51.972;4.624;2023-02-18T20:32:49;102010.0;;;11.3;96.0
52343;BME280;38277;51.972;4.624;2023-02-18T20:37:14;102030.0;;;11.3;95.5
52343;BME280;38277;51.972;4.624;2023-02-18T20:41:46;102030.0;;;11.2;95.5
52343;BME280;38277;51.972;4.624;2023-02-18T20:46:30;102010.0;;;11.2;95.5
52343;BME280;38277;51.972;4.624;2023-02-18T20:55:44;101990.0;;;11.3;95.5
52343;BME280;38277;51.972;4.624;2023-02-18T21:00:03;102010.0;;;11.3;95.5
52343;BME280;38277;51.972;4.624;2023-02-18T21:04:20;102000.0;;;11.3;95.0
52343;BME280;38277;51.972;4.624;2023-02-18T21:13:36;102010.0;;;11.3;95.0
52343;BME280;38277;51.972;4.624;2023-02-18T21:18:01;101980.0;;;11.3;95.0
52343;BME280;38277;51.972;4.624;2023-02-18T21:22:37;101980.0;;;11.3;94.5
52343;BME280;38277;51.972;4.624;2023-02-18T21:31:28;101970.0;;;11.3;94.5
52343;BME280;38277;51.972;4.624;2023-02-18T21:35:53;101980.0;;;11.3;94.5
52343;BME280;38277;51.972;4.624;2023-02-18T21:40:32;101990.0;;;11.3;94.0
52343;BME280;38277;51.972;4.624;2023-02-18T21:45:12;101990.0;;;11.3;94.0
52343;BME280;38277;51.972;4.624;2023-02-18T21:50:02;101990.0;;;11.3;94.0
52343;BME280;38277;51.972;4.624;2023-02-18T21:53:42;102010.0;;;11.3;93.5
52343;BME280;38277;51.972;4.624;2023-02-18T21:58:29;102010.0;;;11.3;93.5
52343;BME280;38277;51.972;4.624;2023-02-18T22:02:47;102010.0;;;11.3;93.5
52343;BME280;38277;51.972;4.624;2023-02-18T22:07:59;101990.0;;;11.3;93.5
52343;BME280;38277;51.972;4.624;2023-02-18T22:12:07;101990.0;;;11.4;93.5
52343;BME280;38277;51.972;4.624;2023-02-18T22:16:13;102000.0;;;11.3;93.5
52343;BME280;38277;51.972;4.624;2023-02-18T22:20:53;101990.0;;;11.3;93.0
52343;BME280;38277;51.972;4.624;2023-02-18T22:26:00;101970.0;;;11.4;93.0
52343;BME280;38277;51.972;4.624;2023-02-18T22:29:44;101990.0;;;11.4;93.0
52343;BME280;38277;51.972;4.624;2023-02-18T22:38:50;101980.0;;;11.4;92.5
52343;BME280;38277;51.972;4.624;2023-02-18T22:43:12;101980.0;;;11.5;92.0
52343;BME280;38277;51.972;4.624;2023-02-18T22:47:54;101970.0;;;11.5;92.0
52343;BME280;38277;51.972;4.624;2023-02-18T22:57:11;101980.0;;;11.5;91.5
52343;BME280;38277;51.972;4.624;2023-02-18T23:01:19;102000.0;;;11.5;91.0
52343;BME280;38277;51.972;4.624;2023-02-18T23:06:00;102000.0;;;11.3;91.5
52343;BME280;38277;51.972;4.624;2023-02-18T23:10:38;101990.0;;;11.3;92.5
52343;BME280;38277;51.972;4.624;2023-02-18T23:15:09;101980.0;;;11.2;93.0
52343;BME280;38277;51.972;4.624;2023-02-18T23:19:26;101990.0;;;11.1;93.5
52343;BME280;38277;51.972;4.624;2023-02-18T23:23:43;101980.0;;;11.1;94.0
52343;BME280;38277;51.972;4.624;2023-02-18T23:32:59;101970.0;;;11.0;94.5
52343;BME280;38277;51.972;4.624;2023-02-18T23:38:21;101980.0;;;10.9;95.0
52343;BME280;38277;51.972;4.624;2023-02-18T23:42:06;101970.0;;;10.9;95.5
52343;BME280;38277;51.972;4.624;2023-02-18T23:46:25;101960.0;;;10.9;95.5
52343;BME280;38277;51.972;4.624;2023-02-18T23:50:57;101960.0;;;10.9;95.0
52343;BME280;38277;51.972;4.624;2023-02-18T23:55:23;101970.0;;;10.9;95.0
52343;BME280;38277;51.972;4.624;2023-02-18T23:59:50;101980.0;;;10.9;94.5
